sensor_id;sensor_type;location;lat;lon;timestamp;pressure;altitude;pressure_sealevel;temperature;humidity
14594;BME280;7383;52.354;9.756;2022-08-03T00:00:57;-12855.69;;;23.21;100.00
14594;BME280;7383;52.354;9.756;2022-08-03T00:03:24;-12854.50;;;23.14;100.00
14594;BME280;7383;52.354;9.756;2022-08-03T00:05:51;-12854.16;;;23.12;100.00
14594;BME280;7383;52.354;9.756;2022-08-03T00:08:32;-12853.38;;;23.08;100.00
14594;BME280;7383;52.354;9.756;2022-08-03T00:53:44;-12843.78;;;22.51;100.00
14594;BME280;7383;52.354;9.756;2022-08-03T00:56:43;-12843.47;;;22.49;100.00
14594;BME280;7383;52.354;9.756;2022-08-03T00:59:48;-12843.03;;;22.46;100.00
14594;BME280;7383;52.354;9.756;2022-08-03T01:05:05;-12842.50;;;22.43;100.00
14594;BME280;7383;52.354;9.756;2022-08-03T01:07:02;-12843.03;;;22.46;100.00
14594;BME280;7383;52.354;9.756;2022-08-03T01:09:52;-12842.94;;;22.46;100.00
14594;BME280;7383;52.354;9.756;2022-08-03T01:12:38;-12841.41;;;22.37;100.00
14594;BME280;7383;52.354;9.756;2022-08-03T01:35:34;-12840.19;;;22.30;100.00
14594;BME280;7383;52.354;9.756;2022-08-03T01:39:00;-12840.03;;;22.29;100.00
14594;BME280;7383;52.354;9.756;2022-08-03T01:46:39;-12839.44;;;22.25;100.00
14594;BME280;7383;52.354;9.756;2022-08-03T01:49:02;-12837.72;;;22.15;100.00
14594;BME280;7383;52.354;9.756;2022-08-03T01:54:47;-12836.78;;;22.10;100.00
14594;BME280;7383;52.354;9.756;2022-08-03T01:57:44;-12835.06;;;21.99;100.00
14594;BME280;7383;52.354;9.756;2022-08-03T02:02:12;-12834.91;;;21.98;100.00
14594;BME280;7383;52.354;9.756;2022-08-03T02:03:47;-12834.22;;;21.94;100.00
14594;BME280;7383;52.354;9.756;2022-08-03T02:06:38;-12834.38;;;21.95;100.00
14594;BME280;7383;52.354;9.756;2022-08-03T02:39:18;-12830.00;;;21.70;100.00
14594;BME280;7383;52.354;9.756;2022-08-03T02:46:14;-12830.44;;;21.72;100.00
14594;BME280;7383;52.354;9.756;2022-08-03T03:03:00;-12826.84;;;21.51;100.00
14594;BME280;7383;52.354;9.756;2022-08-03T03:06:14;-12826.31;;;21.48;100.00
14594;BME280;7383;52.354;9.756;2022-08-03T03:10:38;-12826.56;;;21.49;100.00
14594;BME280;7383;52.354;9.756;2022-08-03T03:12:31;-12827.25;;;21.53;100.00
14594;BME280;7383;52.354;9.756;2022-08-03T03:15:30;-12826.16;;;21.47;100.00
14594;BME280;7383;52.354;9.756;2022-08-03T03:18:32;-12826.41;;;21.48;100.00
14594;BME280;7383;52.354;9.756;2022-08-03T03:21:20;-12826.50;;;21.49;100.00
14594;BME280;7383;52.354;9.756;2022-08-03T03:24:11;-12826.75;;;21.50;100.00
14594;BME280;7383;52.354;9.756;2022-08-03T03:26:47;-12825.13;;;21.41;100.00
14594;BME280;7383;52.354;9.756;2022-08-03T03:29:47;-12825.81;;;21.45;100.00
14594;BME280;7383;52.354;9.756;2022-08-03T03:32:35;-12826.16;;;21.47;100.00
14594;BME280;7383;52.354;9.756;2022-08-03T03:35:57;-12824.69;;;21.38;100.00
14594;BME280;7383;52.354;9.756;2022-08-03T03:41:50;-12824.34;;;21.36;100.00
14594;BME280;7383;52.354;9.756;2022-08-03T03:44:41;-12823.84;;;21.33;100.00
14594;BME280;7383;52.354;9.756;2022-08-03T03:47:33;-12823.84;;;21.33;100.00
14594;BME280;7383;52.354;9.756;2022-08-03T03:50:22;-12822.63;;;21.26;100.00
14594;BME280;7383;52.354;9.756;2022-08-03T03:52:52;-12821.94;;;21.22;100.00
14594;BME280;7383;52.354;9.756;2022-08-03T03:55:21;-12820.50;;;21.14;100.00
14594;BME280;7383;52.354;9.756;2022-08-03T03:57:53;-12820.56;;;21.14;100.00
14594;BME280;7383;52.354;9.756;2022-08-03T04:00:53;-12820.50;;;21.14;100.00
14594;BME280;7383;52.354;9.756;2022-08-03T04:03:24;-12820.50;;;21.14;100.00
14594;BME280;7383;52.354;9.756;2022-08-03T04:06:03;-12820.06;;;21.11;100.00
14594;BME280;7383;52.354;9.756;2022-08-03T04:08:56;-12819.13;;;21.05;100.00
14594;BME280;7383;52.354;9.756;2022-08-03T04:12:08;-12819.19;;;21.06;100.00
14594;BME280;7383;52.354;9.756;2022-08-03T04:14:47;-12819.47;;;21.07;100.00
14594;BME280;7383;52.354;9.756;2022-08-03T04:17:32;-12819.63;;;21.08;100.00
14594;BME280;7383;52.354;9.756;2022-08-03T04:20:20;-12819.81;;;21.09;100.00
14594;BME280;7383;52.354;9.756;2022-08-03T04:22:51;-12818.69;;;21.03;100.00
14594;BME280;7383;52.354;9.756;2022-08-03T04:25:36;-12819.53;;;21.08;100.00
14594;BME280;7383;52.354;9.756;2022-08-03T04:28:09;-12819.72;;;21.09;100.00
14594;BME280;7383;52.354;9.756;2022-08-03T04:30:44;-12819.88;;;21.10;100.00
14594;BME280;7383;52.354;9.756;2022-08-03T04:33:26;-12820.31;;;21.13;100.00
14594;BME280;7383;52.354;9.756;2022-08-03T04:35:59;-12819.03;;;21.05;100.00
14594;BME280;7383;52.354;9.756;2022-08-03T04:38:36;-12819.88;;;21.10;100.00
14594;BME280;7383;52.354;9.756;2022-08-03T04:41:19;-12819.38;;;21.07;100.00
14594;BME280;7383;52.354;9.756;2022-08-03T04:44:10;-12820.66;;;21.15;100.00
14594;BME280;7383;52.354;9.756;2022-08-03T04:46:56;-12820.50;;;21.14;100.00
14594;BME280;7383;52.354;9.756;2022-08-03T04:49:39;-12820.75;;;21.15;100.00
14594;BME280;7383;52.354;9.756;2022-08-03T04:56:07;-12823.16;;;21.29;100.00
14594;BME280;7383;52.354;9.756;2022-08-03T05:00:18;-12823.06;;;21.29;100.00
14594;BME280;7383;52.354;9.756;2022-08-03T05:04:02;-12824.69;;;21.38;100.00
14594;BME280;7383;52.354;9.756;2022-08-03T05:06:40;-12824.53;;;21.37;100.00
14594;BME280;7383;52.354;9.756;2022-08-03T05:09:25;-12825.28;;;21.42;100.00
14594;BME280;7383;52.354;9.756;2022-08-03T05:12:22;-12826.75;;;21.50;100.00
14594;BME280;7383;52.354;9.756;2022-08-03T05:15:24;-12827.00;;;21.52;100.00
14594;BME280;7383;52.354;9.756;2022-08-03T05:18:21;-12827.19;;;21.53;100.00
14594;BME280;7383;52.354;9.756;2022-08-03T05:27:25;-12831.47;;;21.78;100.00
14594;BME280;7383;52.354;9.756;2022-08-03T05:29:53;-12832.16;;;21.82;100.00
14594;BME280;7383;52.354;9.756;2022-08-03T05:32:20;-12832.84;;;21.86;100.00
14594;BME280;7383;52.354;9.756;2022-08-03T05:34:46;-12833.88;;;21.92;100.00
14594;BME280;7383;52.354;9.756;2022-08-03T05:37:12;-12834.63;;;21.97;100.00
14594;BME280;7383;52.354;9.756;2022-08-03T05:39:39;-12835.66;;;22.03;100.00
14594;BME280;7383;52.354;9.756;2022-08-03T05:42:05;-12837.38;;;22.13;100.00
14594;BME280;7383;52.354;9.756;2022-08-03T05:44:33;-12838.91;;;22.22;100.00
14594;BME280;7383;52.354;9.756;2022-08-03T05:47:02;-12839.88;;;22.28;100.00
14594;BME280;7383;52.354;9.756;2022-08-03T05:49:29;-12840.97;;;22.34;100.00
14594;BME280;7383;52.354;9.756;2022-08-03T05:51:56;-12842.09;;;22.41;100.00
14594;BME280;7383;52.354;9.756;2022-08-03T05:54:22;-12842.94;;;22.46;100.00
14594;BME280;7383;52.354;9.756;2022-08-03T05:56:49;-12843.47;;;22.49;100.00
14594;BME280;7383;52.354;9.756;2022-08-03T05:59:16;-12844.31;;;22.54;100.00
14594;BME280;7383;52.354;9.756;2022-08-03T06:01:47;-12844.41;;;22.54;100.00
14594;BME280;7383;52.354;9.756;2022-08-03T06:04:13;-12845.34;;;22.60;100.00
14594;BME280;7383;52.354;9.756;2022-08-03T06:06:40;-12846.53;;;22.67;100.00
14594;BME280;7383;52.354;9.756;2022-08-03T06:09:07;-12847.75;;;22.74;100.00
14594;BME280;7383;52.354;9.756;2022-08-03T06:11:34;-12848.75;;;22.80;100.00
14594;BME280;7383;52.354;9.756;2022-08-03T06:14:02;-12849.63;;;22.85;100.00
14594;BME280;7383;52.354;9.756;2022-08-03T06:16:28;-12850.31;;;22.89;100.00
14594;BME280;7383;52.354;9.756;2022-08-03T06:18:56;-12851.41;;;22.96;100.00
14594;BME280;7383;52.354;9.756;2022-08-03T06:21:23;-12852.88;;;23.04;100.00
14594;BME280;7383;52.354;9.756;2022-08-03T06:23:50;-12854.06;;;23.12;100.00
14594;BME280;7383;52.354;9.756;2022-08-03T06:26:16;-12854.91;;;23.17;100.00
14594;BME280;7383;52.354;9.756;2022-08-03T06:28:43;-12856.63;;;23.27;100.00
14594;BME280;7383;52.354;9.756;2022-08-03T06:31:10;-12858.75;;;23.39;100.00
14594;BME280;7383;52.354;9.756;2022-08-03T06:33:36;-12860.56;;;23.50;100.00
14594;BME280;7383;52.354;9.756;2022-08-03T06:36:05;-12861.94;;;23.58;100.00
14594;BME280;7383;52.354;9.756;2022-08-03T06:38:31;-12863.63;;;23.68;100.00
14594;BME280;7383;52.354;9.756;2022-08-03T06:40:58;-12865.25;;;23.78;100.00
14594;BME280;7383;52.354;9.756;2022-08-03T06:43:25;-12867.13;;;23.89;100.00
14594;BME280;7383;52.354;9.756;2022-08-03T06:45:53;-12868.59;;;23.97;100.00
14594;BME280;7383;52.354;9.756;2022-08-03T06:48:20;-12870.97;;;24.12;100.00
14594;BME280;7383;52.354;9.756;2022-08-03T06:50:47;-12873.03;;;24.24;100.00
14594;BME280;7383;52.354;9.756;2022-08-03T06:53:14;-12874.72;;;24.34;100.00
14594;BME280;7383;52.354;9.756;2022-08-03T06:55:41;-12875.50;;;24.38;100.00
14594;BME280;7383;52.354;9.756;2022-08-03T06:58:07;-12877.28;;;24.49;100.00
14594;BME280;7383;52.354;9.756;2022-08-03T07:00:34;-12878.47;;;24.56;100.00
14594;BME280;7383;52.354;9.756;2022-08-03T07:03:00;-12879.75;;;24.64;100.00
14594;BME280;7383;52.354;9.756;2022-08-03T07:05:27;-12880.00;;;24.65;100.00
14594;BME280;7383;52.354;9.756;2022-08-03T07:07:54;-12881.22;;;24.72;100.00
14594;BME280;7383;52.354;9.756;2022-08-03T07:10:24;-12882.06;;;24.77;100.00
14594;BME280;7383;52.354;9.756;2022-08-03T07:12:52;-12883.34;;;24.85;100.00
14594;BME280;7383;52.354;9.756;2022-08-03T07:15:18;-12884.38;;;24.91;100.00
14594;BME280;7383;52.354;9.756;2022-08-03T07:17:45;-12884.38;;;24.91;100.00
14594;BME280;7383;52.354;9.756;2022-08-03T07:20:11;-12884.53;;;24.92;100.00
14594;BME280;7383;52.354;9.756;2022-08-03T07:22:39;-12886.31;;;25.03;100.00
14594;BME280;7383;52.354;9.756;2022-08-03T07:25:06;-12886.75;;;25.05;100.00
14594;BME280;7383;52.354;9.756;2022-08-03T07:27:35;-12887.44;;;25.09;100.00
14594;BME280;7383;52.354;9.756;2022-08-03T07:30:05;-12888.09;;;25.13;100.00
14594;BME280;7383;52.354;9.756;2022-08-03T07:32:32;-12888.88;;;25.18;100.00
14594;BME280;7383;52.354;9.756;2022-08-03T07:34:58;-12889.47;;;25.21;100.00
14594;BME280;7383;52.354;9.756;2022-08-03T07:37:25;-12890.31;;;25.26;100.00
14594;BME280;7383;52.354;9.756;2022-08-03T07:39:52;-12892.28;;;25.38;100.00
14594;BME280;7383;52.354;9.756;2022-08-03T07:42:18;-12894.91;;;25.54;100.00
14594;BME280;7383;52.354;9.756;2022-08-03T07:44:46;-12896.38;;;25.62;100.00
14594;BME280;7383;52.354;9.756;2022-08-03T07:47:17;-12899.19;;;25.79;100.00
14594;BME280;7383;52.354;9.756;2022-08-03T07:49:43;-12900.44;;;25.86;100.00
14594;BME280;7383;52.354;9.756;2022-08-03T07:52:10;-12901.56;;;25.93;100.00
14594;BME280;7383;52.354;9.756;2022-08-03T07:54:54;-12902.75;;;26.00;100.00
14594;BME280;7383;52.354;9.756;2022-08-03T07:57:21;-12903.59;;;26.05;100.00
14594;BME280;7383;52.354;9.756;2022-08-03T07:59:49;-12905.38;;;26.16;100.00
14594;BME280;7383;52.354;9.756;2022-08-03T08:02:16;-12906.81;;;26.24;100.00
14594;BME280;7383;52.354;9.756;2022-08-03T08:04:43;-12906.91;;;26.25;100.00
14594;BME280;7383;52.354;9.756;2022-08-03T08:07:09;-12908.28;;;26.33;100.00
14594;BME280;7383;52.354;9.756;2022-08-03T08:09:36;-12909.03;;;26.37;100.00
14594;BME280;7383;52.354;9.756;2022-08-03T08:12:03;-12910.47;;;26.46;100.00
14594;BME280;7383;52.354;9.756;2022-08-03T08:14:32;-12910.81;;;26.48;100.00
14594;BME280;7383;52.354;9.756;2022-08-03T08:17:00;-12911.84;;;26.54;100.00
14594;BME280;7383;52.354;9.756;2022-08-03T08:19:27;-12912.59;;;26.59;100.00
14594;BME280;7383;52.354;9.756;2022-08-03T08:21:53;-12914.22;;;26.68;100.00
14594;BME280;7383;52.354;9.756;2022-08-03T08:24:20;-12915.06;;;26.73;100.00
14594;BME280;7383;52.354;9.756;2022-08-03T08:26:46;-12916.41;;;26.81;100.00
14594;BME280;7383;52.354;9.756;2022-08-03T08:29:13;-12917.88;;;26.90;100.00
14594;BME280;7383;52.354;9.756;2022-08-03T08:31:40;-12919.31;;;26.99;100.00
14594;BME280;7383;52.354;9.756;2022-08-03T08:34:08;-12920.31;;;27.05;100.00
14594;BME280;7383;52.354;9.756;2022-08-03T08:36:34;-12921.69;;;27.13;100.00
14594;BME280;7383;52.354;9.756;2022-08-03T08:39:01;-12922.03;;;27.15;100.00
14594;BME280;7383;52.354;9.756;2022-08-03T08:41:27;-12924.06;;;27.27;100.00
14594;BME280;7383;52.354;9.756;2022-08-03T08:43:58;-12925.41;;;27.35;100.00
14594;BME280;7383;52.354;9.756;2022-08-03T08:46:24;-12926.78;;;27.43;100.00
14594;BME280;7383;52.354;9.756;2022-08-03T08:48:52;-12928.13;;;27.51;100.00
14594;BME280;7383;52.354;9.756;2022-08-03T08:51:21;-12929.91;;;27.62;100.00
14594;BME280;7383;52.354;9.756;2022-08-03T08:53:50;-12931.19;;;27.69;100.00
14594;BME280;7383;52.354;9.756;2022-08-03T08:56:17;-12931.84;;;27.73;100.00
14594;BME280;7383;52.354;9.756;2022-08-03T08:58:50;-12933.56;;;27.83;100.00
14594;BME280;7383;52.354;9.756;2022-08-03T09:01:17;-12934.56;;;27.89;100.00
14594;BME280;7383;52.354;9.756;2022-08-03T09:03:44;-12935.75;;;27.97;100.00
14594;BME280;7383;52.354;9.756;2022-08-03T09:06:12;-12936.50;;;28.01;100.00
14594;BME280;7383;52.354;9.756;2022-08-03T09:08:41;-12936.25;;;28.00;100.00
14594;BME280;7383;52.354;9.756;2022-08-03T09:11:07;-12936.59;;;28.02;100.00
14594;BME280;7383;52.354;9.756;2022-08-03T09:13:34;-12936.78;;;28.03;100.00
14594;BME280;7383;52.354;9.756;2022-08-03T09:16:11;-12938.22;;;28.11;100.00
14594;BME280;7383;52.354;9.756;2022-08-03T09:18:39;-12939.13;;;28.17;100.00
14594;BME280;7383;52.354;9.756;2022-08-03T09:21:13;-12939.22;;;28.17;100.00
14594;BME280;7383;52.354;9.756;2022-08-03T09:23:45;-12940.50;;;28.25;100.00
14594;BME280;7383;52.354;9.756;2022-08-03T09:26:19;-12942.00;;;28.34;100.00
14594;BME280;7383;52.354;9.756;2022-08-03T09:28:45;-12943.72;;;28.44;100.00
14594;BME280;7383;52.354;9.756;2022-08-03T09:31:11;-12944.22;;;28.47;100.00
14594;BME280;7383;52.354;9.756;2022-08-03T09:33:46;-12944.72;;;28.50;100.00
14594;BME280;7383;52.354;9.756;2022-08-03T09:36:37;-12944.31;;;28.48;100.00
14594;BME280;7383;52.354;9.756;2022-08-03T09:39:06;-12943.88;;;28.45;100.00
14594;BME280;7383;52.354;9.756;2022-08-03T09:41:38;-12945.16;;;28.53;100.00
14594;BME280;7383;52.354;9.756;2022-08-03T09:44:08;-12946.75;;;28.62;100.00
14594;BME280;7383;52.354;9.756;2022-08-03T09:46:48;-12947.00;;;28.64;100.00
14594;BME280;7383;52.354;9.756;2022-08-03T09:49:14;-12947.44;;;28.66;100.00
14594;BME280;7383;52.354;9.756;2022-08-03T09:51:42;-12947.50;;;28.67;100.00
14594;BME280;7383;52.354;9.756;2022-08-03T09:54:10;-12947.19;;;28.65;100.00
14594;BME280;7383;52.354;9.756;2022-08-03T09:56:39;-12948.44;;;28.72;100.00
14594;BME280;7383;52.354;9.756;2022-08-03T09:59:06;-12949.53;;;28.79;100.00
14594;BME280;7383;52.354;9.756;2022-08-03T10:01:33;-12950.47;;;28.84;100.00
14594;BME280;7383;52.354;9.756;2022-08-03T10:04:00;-12952.25;;;28.95;100.00
14594;BME280;7383;52.354;9.756;2022-08-03T10:06:26;-12952.84;;;28.99;100.00
14594;BME280;7383;52.354;9.756;2022-08-03T10:09:05;-12952.66;;;28.98;100.00
14594;BME280;7383;52.354;9.756;2022-08-03T10:11:34;-12952.34;;;28.96;100.00
14594;BME280;7383;52.354;9.756;2022-08-03T10:14:02;-12952.59;;;28.97;100.00
14594;BME280;7383;52.354;9.756;2022-08-03T10:16:32;-12952.75;;;28.98;100.00
14594;BME280;7383;52.354;9.756;2022-08-03T10:18:59;-12949.81;;;28.80;100.00
14594;BME280;7383;52.354;9.756;2022-08-03T10:21:29;-12950.56;;;28.85;100.00
14594;BME280;7383;52.354;9.756;2022-08-03T10:23:58;-12951.66;;;28.92;100.00
14594;BME280;7383;52.354;9.756;2022-08-03T10:26:26;-12952.41;;;28.96;100.00
14594;BME280;7383;52.354;9.756;2022-08-03T10:28:56;-12953.00;;;29.00;100.00
14594;BME280;7383;52.354;9.756;2022-08-03T10:31:25;-12955.03;;;29.12;100.00
14594;BME280;7383;52.354;9.756;2022-08-03T10:33:56;-12956.38;;;29.20;100.00
14594;BME280;7383;52.354;9.756;2022-08-03T10:36:26;-12956.22;;;29.19;100.00
14594;BME280;7383;52.354;9.756;2022-08-03T10:38:55;-12956.13;;;29.18;100.00
14594;BME280;7383;52.354;9.756;2022-08-03T10:41:25;-12957.75;;;29.28;100.00
14594;BME280;7383;52.354;9.756;2022-08-03T10:43:57;-12958.41;;;29.32;100.00
14594;BME280;7383;52.354;9.756;2022-08-03T10:46:25;-12959.09;;;29.36;100.00
14594;BME280;7383;52.354;9.756;2022-08-03T10:48:52;-12958.59;;;29.33;100.00
14594;BME280;7383;52.354;9.756;2022-08-03T10:51:20;-12959.09;;;29.36;100.00
14594;BME280;7383;52.354;9.756;2022-08-03T10:53:48;-12959.50;;;29.39;100.00
14594;BME280;7383;52.354;9.756;2022-08-03T10:56:37;-12960.09;;;29.42;100.00
14594;BME280;7383;52.354;9.756;2022-08-03T11:03:02;-12959.50;;;29.39;100.00
14594;BME280;7383;52.354;9.756;2022-08-03T11:05:32;-12961.38;;;29.50;100.00
14594;BME280;7383;52.354;9.756;2022-08-03T11:08:25;-12962.97;;;29.59;100.00
14594;BME280;7383;52.354;9.756;2022-08-03T11:10:54;-12964.75;;;29.70;100.00
14594;BME280;7383;52.354;9.756;2022-08-03T11:13:23;-12967.03;;;29.84;100.00
14594;BME280;7383;52.354;9.756;2022-08-03T11:15:54;-12966.78;;;29.82;100.00
14594;BME280;7383;52.354;9.756;2022-08-03T11:18:23;-12967.72;;;29.88;100.00
14594;BME280;7383;52.354;9.756;2022-08-03T11:20:51;-12968.13;;;29.90;100.00
14594;BME280;7383;52.354;9.756;2022-08-03T11:23:38;-12968.81;;;29.94;100.00
14594;BME280;7383;52.354;9.756;2022-08-03T11:26:16;-12972.84;;;30.18;100.00
14594;BME280;7383;52.354;9.756;2022-08-03T11:28:44;-12973.34;;;30.21;100.00
14594;BME280;7383;52.354;9.756;2022-08-03T11:31:45;-12972.50;;;30.16;100.00
14594;BME280;7383;52.354;9.756;2022-08-03T11:34:15;-12972.16;;;30.14;100.00
14594;BME280;7383;52.354;9.756;2022-08-03T11:37:21;-12973.34;;;30.21;100.00
14594;BME280;7383;52.354;9.756;2022-08-03T11:39:52;-12974.88;;;30.31;100.00
14594;BME280;7383;52.354;9.756;2022-08-03T11:42:40;-12976.63;;;30.41;100.00
14594;BME280;7383;52.354;9.756;2022-08-03T11:45:11;-12980.59;;;30.65;100.00
14594;BME280;7383;52.354;9.756;2022-08-03T11:47:38;-12983.03;;;30.80;100.00
14594;BME280;7383;52.354;9.756;2022-08-03T11:50:07;-12986.25;;;30.99;100.00
14594;BME280;7383;52.354;9.756;2022-08-03T11:52:37;-12988.34;;;31.11;100.00
14594;BME280;7383;52.354;9.756;2022-08-03T11:55:09;-12991.28;;;31.29;100.00
14594;BME280;7383;52.354;9.756;2022-08-03T11:57:35;-12991.22;;;31.29;100.00
14594;BME280;7383;52.354;9.756;2022-08-03T12:00:18;-12991.28;;;31.29;100.00
14594;BME280;7383;52.354;9.756;2022-08-03T12:02:56;-12994.16;;;31.46;100.00
14594;BME280;7383;52.354;9.756;2022-08-03T12:05:40;-12996.69;;;31.61;100.00
14594;BME280;7383;52.354;9.756;2022-08-03T12:08:07;-12998.09;;;31.70;100.00
14594;BME280;7383;52.354;9.756;2022-08-03T12:10:35;-12999.69;;;31.80;100.00
14594;BME280;7383;52.354;9.756;2022-08-03T12:13:04;-13002.56;;;31.97;100.00
14594;BME280;7383;52.354;9.756;2022-08-03T12:15:34;-13005.41;;;32.14;100.00
14594;BME280;7383;52.354;9.756;2022-08-03T12:18:01;-13007.00;;;32.24;100.00
14594;BME280;7383;52.354;9.756;2022-08-03T12:20:30;-13007.00;;;32.24;100.00
14594;BME280;7383;52.354;9.756;2022-08-03T12:23:03;-13006.25;;;32.19;100.00
14594;BME280;7383;52.354;9.756;2022-08-03T12:25:31;-13005.31;;;32.13;100.00
14594;BME280;7383;52.354;9.756;2022-08-03T12:28:12;-13007.50;;;32.27;100.00
14594;BME280;7383;52.354;9.756;2022-08-03T12:30:41;-13009.44;;;32.38;100.00
14594;BME280;7383;52.354;9.756;2022-08-03T12:33:15;-13013.81;;;32.64;100.00
14594;BME280;7383;52.354;9.756;2022-08-03T12:35:44;-13015.97;;;32.78;100.00
14594;BME280;7383;52.354;9.756;2022-08-03T12:38:12;-13015.66;;;32.76;100.00
14594;BME280;7383;52.354;9.756;2022-08-03T12:40:40;-13016.66;;;32.82;100.00
14594;BME280;7383;52.354;9.756;2022-08-03T12:43:11;-13017.16;;;32.85;100.00
14594;BME280;7383;52.354;9.756;2022-08-03T12:45:38;-13012.53;;;32.57;100.00
14594;BME280;7383;52.354;9.756;2022-08-03T12:48:08;-13008.94;;;32.35;100.00
14594;BME280;7383;52.354;9.756;2022-08-03T12:50:36;-13003.22;;;32.01;100.00
14594;BME280;7383;52.354;9.756;2022-08-03T12:53:05;-13005.16;;;32.12;100.00
14594;BME280;7383;52.354;9.756;2022-08-03T12:55:34;-13006.25;;;32.19;100.00
14594;BME280;7383;52.354;9.756;2022-08-03T12:58:01;-13005.50;;;32.14;100.00
14594;BME280;7383;52.354;9.756;2022-08-03T13:00:28;-13002.31;;;31.95;100.00
14594;BME280;7383;52.354;9.756;2022-08-03T13:02:59;-12999.63;;;31.79;100.00
14594;BME280;7383;52.354;9.756;2022-08-03T13:05:26;-13003.81;;;32.04;100.00
14594;BME280;7383;52.354;9.756;2022-08-03T13:07:52;-13006.66;;;32.22;100.00
14594;BME280;7383;52.354;9.756;2022-08-03T13:10:27;-13007.69;;;32.28;100.00
14594;BME280;7383;52.354;9.756;2022-08-03T13:12:55;-13009.44;;;32.38;100.00
14594;BME280;7383;52.354;9.756;2022-08-03T13:15:24;-13017.75;;;32.88;100.00
14594;BME280;7383;52.354;9.756;2022-08-03T13:17:52;-13024.09;;;33.27;100.00
14594;BME280;7383;52.354;9.756;2022-08-03T13:20:20;-13023.69;;;33.24;100.00
14594;BME280;7383;52.354;9.756;2022-08-03T13:22:47;-13025.69;;;33.36;100.00
14594;BME280;7383;52.354;9.756;2022-08-03T13:25:13;-13031.22;;;33.70;100.00
14594;BME280;7383;52.354;9.756;2022-08-03T13:27:40;-13032.81;;;33.79;100.00
14594;BME280;7383;52.354;9.756;2022-08-03T13:33:29;-13033.06;;;33.81;100.00
14594;BME280;7383;52.354;9.756;2022-08-03T13:35:56;-13037.91;;;34.10;100.00
14594;BME280;7383;52.354;9.756;2022-08-03T13:38:23;-13047.88;;;34.70;100.00
14594;BME280;7383;52.354;9.756;2022-08-03T13:40:50;-13062.03;;;35.56;100.00
14594;BME280;7383;52.354;9.756;2022-08-03T13:43:16;-13089.66;;;37.24;100.00
14594;BME280;7383;52.354;9.756;2022-08-03T13:45:43;-13126.84;;;39.51;100.00
14594;BME280;7383;52.354;9.756;2022-08-03T13:48:09;-13166.94;;;41.97;100.00
14594;BME280;7383;52.354;9.756;2022-08-03T13:50:37;-13200.88;;;44.06;100.00
14594;BME280;7383;52.354;9.756;2022-08-03T13:53:03;-13224.09;;;45.50;100.00
14594;BME280;7383;52.354;9.756;2022-08-03T13:55:29;-13242.41;;;46.64;100.00
14594;BME280;7383;52.354;9.756;2022-08-03T13:57:56;-13264.19;;;48.00;100.00
14594;BME280;7383;52.354;9.756;2022-08-03T14:00:22;-13286.72;;;49.41;100.00
14594;BME280;7383;52.354;9.756;2022-08-03T14:02:50;-13292.94;;;49.80;100.00
14594;BME280;7383;52.354;9.756;2022-08-03T14:05:16;-13293.66;;;49.84;100.00
14594;BME280;7383;52.354;9.756;2022-08-03T14:07:44;-13298.47;;;50.14;100.00
14594;BME280;7383;52.354;9.756;2022-08-03T14:10:12;-13306.34;;;50.64;100.00
14594;BME280;7383;52.354;9.756;2022-08-03T14:12:39;-13302.25;;;50.38;100.00
14594;BME280;7383;52.354;9.756;2022-08-03T14:15:06;-13312.53;;;51.03;100.00
14594;BME280;7383;52.354;9.756;2022-08-03T14:17:34;-13314.63;;;51.16;100.00
14594;BME280;7383;52.354;9.756;2022-08-03T14:20:00;-13330.47;;;52.16;100.00
14594;BME280;7383;52.354;9.756;2022-08-03T14:22:29;-13341.66;;;52.87;100.00
14594;BME280;7383;52.354;9.756;2022-08-03T14:24:56;-13352.38;;;53.55;100.00
14594;BME280;7383;52.354;9.756;2022-08-03T14:27:23;-13359.44;;;53.99;100.00
14594;BME280;7383;52.354;9.756;2022-08-03T14:29:49;-13349.50;;;53.36;99.31
14594;BME280;7383;52.354;9.756;2022-08-03T14:32:16;-13343.25;;;52.97;96.98
14594;BME280;7383;52.354;9.756;2022-08-03T14:34:42;-13357.53;;;53.87;99.44
14594;BME280;7383;52.354;9.756;2022-08-03T14:37:08;-13354.50;;;53.68;93.02
14594;BME280;7383;52.354;9.756;2022-08-03T14:39:35;-13360.47;;;54.06;91.76
14594;BME280;7383;52.354;9.756;2022-08-03T14:42:04;-13353.31;;;53.61;92.05
14594;BME280;7383;52.354;9.756;2022-08-03T14:44:30;-13338.78;;;52.69;91.49
14594;BME280;7383;52.354;9.756;2022-08-03T14:46:57;-13342.72;;;52.93;92.47
14594;BME280;7383;52.354;9.756;2022-08-03T14:49:23;-13341.50;;;52.86;90.82
14594;BME280;7383;52.354;9.756;2022-08-03T14:51:50;-13340.94;;;52.82;90.50
14594;BME280;7383;52.354;9.756;2022-08-03T14:54:16;-13352.69;;;53.57;91.31
14594;BME280;7383;52.354;9.756;2022-08-03T14:56:43;-13358.66;;;53.94;90.41
14594;BME280;7383;52.354;9.756;2022-08-03T14:59:10;-13348.13;;;53.28;88.76
14594;BME280;7383;52.354;9.756;2022-08-03T15:01:37;-13350.69;;;53.44;89.94
14594;BME280;7383;52.354;9.756;2022-08-03T15:04:03;-13339.84;;;52.75;88.04
14594;BME280;7383;52.354;9.756;2022-08-03T15:06:30;-13328.00;;;52.00;88.66
14594;BME280;7383;52.354;9.756;2022-08-03T15:08:56;-13336.72;;;52.55;89.89
14594;BME280;7383;52.354;9.756;2022-08-03T15:11:22;-13342.63;;;52.93;88.92
14594;BME280;7383;52.354;9.756;2022-08-03T15:13:49;-13330.66;;;52.17;88.00
14594;BME280;7383;52.354;9.756;2022-08-03T15:16:16;-13292.19;;;49.75;88.52
14594;BME280;7383;52.354;9.756;2022-08-03T15:18:43;-13265.97;;;48.11;89.21
14594;BME280;7383;52.354;9.756;2022-08-03T15:21:09;-13244.19;;;46.75;89.88
14594;BME280;7383;52.354;9.756;2022-08-03T15:23:35;-13250.19;;;47.12;92.03
14594;BME280;7383;52.354;9.756;2022-08-03T15:26:02;-13271.31;;;48.44;93.34
14594;BME280;7383;52.354;9.756;2022-08-03T15:28:28;-13283.97;;;49.23;93.47
14594;BME280;7383;52.354;9.756;2022-08-03T15:30:55;-13292.94;;;49.80;92.79
14594;BME280;7383;52.354;9.756;2022-08-03T15:33:23;-13289.13;;;49.56;90.86
14594;BME280;7383;52.354;9.756;2022-08-03T15:35:49;-13301.22;;;50.32;91.35
14594;BME280;7383;52.354;9.756;2022-08-03T15:38:17;-13304.25;;;50.51;88.70
14594;BME280;7383;52.354;9.756;2022-08-03T15:40:43;-13307.81;;;50.73;89.71
14594;BME280;7383;52.354;9.756;2022-08-03T15:43:10;-13275.03;;;48.67;88.57